Time;durP1;ratioP1;P1;durP2;ratioP2;P2;SDS_P1;SDS_P2;PMS_P1;PMS_P2;Temp;Humidity;BMP_temperature;BMP_pressure;BME280_temperature;BME280_humidity;BME280_pressure;Samples;Min_cycle;Max_cycle;Signal;HPM_P1;HPM_P2
2022/07/24 00:01:42;;;;;;;7.10;6.50;;;24.60;76.60;;;;;;4993941;28;20191;-71
2022/07/24 00:04:08;;;;;;;7.53;6.82;;;24.60;76.70;;;;;;5006572;28;20572;-71
2022/07/24 00:06:34;;;;;;;7.47;6.80;;;24.60;76.70;;;;;;4973871;28;20727;-71
2022/07/24 00:09:00;;;;;;;7.80;7.20;;;24.60;76.70;;;;;;4997147;28;20190;-71
2022/07/24 00:11:26;;;;;;;7.53;6.95;;;24.60;76.70;;;;;;4973924;28;20761;-68
2022/07/24 00:13:53;;;;;;;7.45;6.85;;;24.70;76.80;;;;;;4974482;28;20276;-69
2022/07/24 00:16:19;;;;;;;7.80;7.20;;;24.60;76.70;;;;;;5011807;28;20223;-69
2022/07/24 00:18:45;;;;;;;7.40;6.80;;;24.70;76.80;;;;;;4989511;28;20189;-69
2022/07/24 00:21:11;;;;;;;7.45;6.85;;;24.70;76.90;;;;;;4978106;28;20201;-69
2022/07/24 00:23:37;;;;;;;7.65;7.05;;;24.70;76.90;;;;;;4976594;28;20215;-70
2022/07/24 00:26:03;;;;;;;7.20;6.60;;;24.60;76.80;;;;;;4977003;28;20337;-70
2022/07/24 00:28:28;;;;;;;7.75;7.05;;;24.60;76.80;;;;;;4976395;28;20197;-70
2022/07/24 00:30:54;;;;;;;7.20;6.60;;;24.60;76.80;;;;;;4992396;28;20708;-69
2022/07/24 00:33:20;;;;;;;7.32;6.72;;;24.60;76.80;;;;;;4976494;28;20188;-70
2022/07/24 00:35:46;;;;;;;7.75;7.15;;;24.60;76.90;;;;;;4992634;28;20201;-69
2022/07/24 00:38:11;;;;;;;6.97;6.45;;;24.60;76.80;;;;;;4992179;28;20197;-69
2022/07/24 00:40:38;;;;;;;7.50;6.90;;;24.60;76.90;;;;;;4992722;28;20195;-69
2022/07/24 00:43:03;;;;;;;7.20;6.70;;;24.60;76.90;;;;;;4992501;28;20208;-69
2022/07/24 00:45:30;;;;;;;7.13;6.53;;;24.60;76.80;;;;;;4992319;28;20212;-69
2022/07/24 00:47:56;;;;;;;7.00;6.40;;;24.60;76.80;;;;;;4992023;28;20189;-69
2022/07/24 00:50:22;;;;;;;7.43;6.82;;;24.60;76.90;;;;;;4976312;28;20312;-69
2022/07/24 00:52:49;;;;;;;8.18;7.38;;;24.60;76.90;;;;;;4992419;28;20751;-69
2022/07/24 00:55:15;;;;;;;7.22;6.65;;;24.60;76.80;;;;;;4992312;28;20208;-69
2022/07/24 00:57:43;;;;;;;7.53;6.93;;;24.60;76.80;;;;;;4975668;28;20177;-69
2022/07/24 01:00:10;;;;;;;7.38;6.78;;;24.60;76.90;;;;;;4976379;28;20185;-69
2022/07/24 01:02:41;;;;;;;7.20;6.70;;;24.60;76.90;;;;;;4992246;28;20189;-70
2022/07/24 01:05:09;;;;;;;7.43;6.82;;;24.60;76.90;;;;;;4992089;28;20220;-69
2022/07/24 01:07:36;;;;;;;6.53;6.03;;;24.60;76.90;;;;;;4991905;28;20189;-69
2022/07/24 01:10:04;;;;;;;7.50;6.85;;;24.60;76.90;;;;;;4975924;28;20602;-70
2022/07/24 01:12:32;;;;;;;6.97;6.45;;;24.60;77.00;;;;;;4975962;28;20176;-70
2022/07/24 01:14:58;;;;;;;6.80;6.30;;;24.60;76.90;;;;;;4975946;28;20238;-69
2022/07/24 01:17:30;;;;;;;7.05;6.45;;;24.60;76.90;;;;;;4975438;28;20650;-69
2022/07/24 01:19:58;;;;;;;7.35;6.75;;;24.60;76.90;;;;;;4992378;28;20263;-69
2022/07/24 01:22:25;;;;;;;7.32;6.80;;;24.60;76.90;;;;;;4992300;28;20267;-69
2022/07/24 01:24:52;;;;;;;7.72;7.13;;;24.60;76.90;;;;;;4991907;28;20196;-69
2022/07/24 01:27:18;;;;;;;7.00;6.50;;;24.60;77.00;;;;;;4991600;28;20204;-69
2022/07/24 01:29:44;;;;;;;7.32;6.80;;;24.60;76.90;;;;;;4991757;28;20336;-69
2022/07/24 01:32:10;;;;;;;7.38;6.78;;;24.60;76.90;;;;;;4991998;28;20199;-69
2022/07/24 01:34:36;;;;;;;7.90;7.10;;;24.60;76.90;;;;;;4991734;28;20272;-69
2022/07/24 01:37:02;;;;;;;7.47;6.88;;;24.60;76.90;;;;;;4975217;28;20234;-69
2022/07/24 01:39:28;;;;;;;6.85;6.30;;;24.60;76.90;;;;;;4991714;28;20195;-69
2022/07/24 01:41:54;;;;;;;7.30;6.70;;;24.60;76.90;;;;;;4991719;28;20184;-69
2022/07/24 01:44:20;;;;;;;7.00;6.40;;;24.60;76.90;;;;;;4975824;28;20192;-69
2022/07/24 01:46:46;;;;;;;7.68;7.07;;;24.60;76.90;;;;;;4974655;28;20221;-69
2022/07/24 01:49:12;;;;;;;7.03;6.53;;;24.60;76.90;;;;;;4975491;28;20199;-69
2022/07/24 01:51:38;;;;;;;7.15;6.55;;;24.60;76.90;;;;;;4991600;28;20220;-69
2022/07/24 01:54:04;;;;;;;6.97;6.40;;;24.60;76.80;;;;;;4975466;28;20193;-69
2022/07/24 01:56:32;;;;;;;7.00;6.40;;;24.60;76.90;;;;;;4990990;28;20205;-69
2022/07/24 01:58:58;;;;;;;7.57;6.88;;;24.50;76.70;;;;;;4975414;28;20276;-69
2022/07/24 02:01:26;;;;;;;6.60;6.10;;;24.50;76.70;;;;;;4975342;28;20191;-69
2022/07/24 02:03:52;;;;;;;7.75;7.15;;;24.50;76.70;;;;;;4975533;28;20189;-69
2022/07/24 02:06:18;;;;;;;7.10;6.50;;;24.50;76.70;;;;;;4991834;28;20235;-69
2022/07/24 02:08:44;;;;;;;6.80;6.20;;;24.50;76.70;;;;;;4975106;28;20188;-69
2022/07/24 02:11:11;;;;;;;7.60;7.00;;;24.50;76.60;;;;;;4991748;28;20300;-69
2022/07/24 02:13:36;;;;;;;6.72;6.22;;;24.50;76.60;;;;;;4991658;28;20181;-69
2022/07/24 02:16:03;;;;;;;7.50;6.90;;;24.50;76.70;;;;;;4975135;28;20205;-69
2022/07/24 02:18:28;;;;;;;6.80;6.30;;;24.60;76.80;;;;;;4977903;28;20189;-69
2022/07/24 02:20:54;;;;;;;6.70;6.20;;;24.50;76.70;;;;;;4995235;28;20211;-69
2022/07/24 02:23:20;;;;;;;6.95;6.40;;;24.50;76.70;;;;;;4995143;28;20227;-69
2022/07/24 02:25:48;;;;;;;7.07;6.47;;;24.50;76.70;;;;;;4979012;28;20223;-69
2022/07/24 02:28:15;;;;;;;6.45;5.95;;;24.50;76.70;;;;;;4994617;28;20212;-69
2022/07/24 02:30:41;;;;;;;6.80;6.30;;;24.50;76.60;;;;;;4995026;28;20275;-69
2022/07/24 02:33:08;;;;;;;7.45;6.85;;;24.50;76.60;;;;;;4995376;28;20316;-69
2022/07/24 02:35:34;;;;;;;6.80;6.30;;;24.60;76.70;;;;;;4978752;28;20213;-69
2022/07/24 02:38:00;;;;;;;6.70;6.20;;;24.50;76.60;;;;;;4994355;28;20586;-69
2022/07/24 02:40:26;;;;;;;6.57;6.07;;;24.50;76.50;;;;;;4994922;28;20200;-69
2022/07/24 02:42:52;;;;;;;7.47;6.88;;;24.50;76.50;;;;;;4994781;28;20287;-69
2022/07/24 02:45:18;;;;;;;6.60;6.10;;;24.50;76.50;;;;;;4994392;28;20184;-69
2022/07/24 02:47:57;;;;;;;6.85;6.35;;;24.50;76.50;;;;;;4994089;28;20193;-69
2022/07/24 02:50:28;;;;;;;6.70;6.10;;;24.50;76.50;;;;;;4991310;28;20220;-69
2022/07/24 02:52:54;;;;;;;6.93;6.32;;;24.50;76.50;;;;;;4994429;28;20231;-69
2022/07/24 02:55:20;;;;;;;6.70;6.20;;;24.50;76.60;;;;;;4994534;28;20189;-69
2022/07/24 02:57:46;;;;;;;6.85;6.35;;;24.50;76.50;;;;;;5010144;28;20255;-70
2022/07/24 03:00:16;;;;;;;7.18;6.57;;;24.50;76.50;;;;;;5009665;28;20606;-69
2022/07/24 03:02:43;;;;;;;7.13;6.55;;;24.50;76.50;;;;;;4994448;28;20280;-69
2022/07/24 03:05:10;;;;;;;6.95;6.35;;;24.50;76.50;;;;;;5011005;28;20295;-69
2022/07/24 03:07:37;;;;;;;7.18;6.60;;;24.50;76.50;;;;;;4993883;28;20192;-69
2022/07/24 03:10:09;;;;;;;7.07;6.40;;;24.50;76.50;;;;;;4994599;28;20213;-69
2022/07/24 03:12:35;;;;;;;7.28;6.75;;;24.50;76.40;;;;;;4994320;28;20181;-69
2022/07/24 03:15:02;;;;;;;6.43;5.93;;;24.50;76.40;;;;;;4994280;28;20185;-69
2022/07/24 03:17:28;;;;;;;6.38;5.85;;;24.50;76.40;;;;;;4993822;28;20181;-69
2022/07/24 03:19:54;;;;;;;7.03;6.53;;;24.50;76.30;;;;;;4994195;28;20185;-69
2022/07/24 03:22:20;;;;;;;6.82;6.32;;;24.50;76.30;;;;;;4994483;28;20200;-70
2022/07/24 03:24:46;;;;;;;6.53;6.03;;;24.50;76.30;;;;;;4994438;28;20193;-70
2022/07/24 03:27:12;;;;;;;6.68;6.18;;;24.50;76.30;;;;;;4977140;28;20212;-69
2022/07/24 03:29:37;;;;;;;6.85;6.25;;;24.40;76.20;;;;;;4992750;28;20185;-69
2022/07/24 03:32:04;;;;;;;6.75;6.13;;;24.50;76.30;;;;;;4993989;28;20243;-69
2022/07/24 03:34:30;;;;;;;7.13;6.43;;;24.50;76.30;;;;;;4994180;28;20185;-69
2022/07/24 03:36:56;;;;;;;7.05;6.55;;;24.50;76.20;;;;;;4977149;28;20263;-69
2022/07/24 03:39:22;;;;;;;6.45;5.85;;;24.50;76.20;;;;;;4994262;28;20189;-70
2022/07/24 03:41:48;;;;;;;6.90;6.40;;;24.50;76.20;;;;;;4993790;28;20193;-69
2022/07/24 03:44:14;;;;;;;7.05;6.50;;;24.50;76.10;;;;;;4993788;28;20279;-69
2022/07/24 03:46:40;;;;;;;6.68;6.18;;;24.50;76.20;;;;;;4992282;28;20209;-69
2022/07/24 03:49:05;;;;;;;7.20;6.50;;;24.40;76.00;;;;;;4993983;28;20217;-69
2022/07/24 03:51:31;;;;;;;6.75;6.18;;;24.40;76.00;;;;;;4993700;28;20217;-69
2022/07/24 03:53:57;;;;;;;7.38;6.78;;;24.50;76.10;;;;;;4993686;28;20283;-69
2022/07/24 03:56:23;;;;;;;6.95;6.40;;;24.50;76.10;;;;;;4993481;28;20299;-69
2022/07/24 03:58:49;;;;;;;6.70;6.20;;;24.40;76.00;;;;;;4992848;28;20279;-70
2022/07/24 04:01:15;;;;;;;6.40;5.90;;;24.40;76.00;;;;;;4993294;28;20192;-69
2022/07/24 04:03:40;;;;;;;6.53;5.93;;;24.50;76.10;;;;;;4993698;28;20246;-70
2022/07/24 04:06:06;;;;;;;6.68;6.07;;;24.40;76.00;;;;;;4989907;28;20213;-69
2022/07/24 04:08:33;;;;;;;7.20;6.60;;;24.50;76.10;;;;;;4989559;28;20306;-69
2022/07/24 04:10:59;;;;;;;6.85;6.20;;;24.40;76.00;;;;;;4989935;28;20217;-69
2022/07/24 04:13:28;;;;;;;6.45;5.95;;;24.40;76.00;;;;;;4989976;28;20190;-69
2022/07/24 04:15:55;;;;;;;6.50;6.00;;;24.40;76.00;;;;;;4989772;28;20689;-69
2022/07/24 04:18:21;;;;;;;6.10;5.68;;;24.40;76.00;;;;;;4989381;28;20217;-69
2022/07/24 04:20:48;;;;;;;6.28;5.78;;;24.40;75.90;;;;;;4989886;28;20193;-69
2022/07/24 04:23:14;;;;;;;6.97;6.38;;;24.40;76.00;;;;;;4989905;28;20186;-69
2022/07/24 04:25:41;;;;;;;6.95;6.40;;;24.40;75.90;;;;;;4989543;28;20337;-69
2022/07/24 04:28:06;;;;;;;6.50;5.90;;;24.40;76.60;;;;;;4989212;28;20192;-69
2022/07/24 04:30:32;;;;;;;7.03;6.43;;;24.40;75.80;;;;;;4989719;28;20308;-69
2022/07/24 04:32:58;;;;;;;6.85;6.25;;;24.40;75.90;;;;;;4989573;28;20566;-69
2022/07/24 04:35:25;;;;;;;7.43;6.70;;;24.40;75.90;;;;;;4989451;28;20264;-69
2022/07/24 04:37:51;;;;;;;6.88;6.35;;;24.40;75.90;;;;;;4989093;28;20182;-69
2022/07/24 04:40:17;;;;;;;6.25;5.75;;;24.40;75.90;;;;;;4989184;28;20196;-69
2022/07/24 04:42:43;;;;;;;6.85;6.35;;;24.40;75.90;;;;;;4989366;28;20198;-69
2022/07/24 04:45:09;;;;;;;6.22;5.72;;;24.40;75.90;;;;;;4989227;28;20642;-69
2022/07/24 04:47:36;;;;;;;6.95;6.45;;;24.40;75.90;;;;;;4988583;28;20603;-69
2022/07/24 04:50:05;;;;;;;7.25;6.65;;;24.40;75.90;;;;;;4989283;28;20189;-69
2022/07/24 04:52:31;;;;;;;6.68;6.18;;;24.40;75.90;;;;;;4989523;28;20178;-69
2022/07/24 04:54:56;;;;;;;6.65;6.15;;;24.40;75.90;;;;;;4989160;28;20638;-70
2022/07/24 04:57:22;;;;;;;7.03;6.38;;;24.40;75.90;;;;;;4988551;28;20214;-69
2022/07/24 04:59:49;;;;;;;6.95;6.38;;;24.40;75.90;;;;;;4989464;28;20186;-69
2022/07/24 05:02:15;;;;;;;6.35;5.82;;;24.40;76.00;;;;;;4989136;28;20313;-69
2022/07/24 05:04:40;;;;;;;6.22;5.75;;;24.40;75.90;;;;;;4989040;28;20197;-69
2022/07/24 05:07:06;;;;;;;6.60;6.10;;;24.40;75.90;;;;;;4988440;28;20210;-69
2022/07/24 05:09:32;;;;;;;6.07;5.57;;;24.40;75.90;;;;;;4989310;28;20524;-69
2022/07/24 05:11:58;;;;;;;6.20;5.70;;;24.40;75.90;;;;;;4989226;28;20221;-69
2022/07/24 05:14:23;;;;;;;6.30;5.80;;;24.40;75.90;;;;;;4988877;28;20277;-69
2022/07/24 05:16:49;;;;;;;6.38;5.80;;;24.40;75.90;;;;;;4988190;28;20218;-69
2022/07/24 05:19:15;;;;;;;6.72;6.15;;;24.40;76.00;;;;;;4989182;28;20238;-69
2022/07/24 05:21:41;;;;;;;6.35;5.85;;;24.40;76.00;;;;;;4989266;28;20193;-69
2022/07/24 05:24:07;;;;;;;6.72;6.22;;;24.40;76.00;;;;;;4988770;28;20193;-69
2022/07/24 05:26:33;;;;;;;6.40;5.90;;;24.40;76.00;;;;;;4988834;28;20206;-69
2022/07/24 05:29:01;;;;;;;6.53;6.03;;;24.40;76.00;;;;;;4988269;28;20189;-69
2022/07/24 05:31:27;;;;;;;7.00;6.30;;;24.40;76.00;;;;;;4988939;28;20218;-69
2022/07/24 05:33:53;;;;;;;6.38;5.88;;;24.40;76.00;;;;;;4988799;28;20174;-69
2022/07/24 05:36:20;;;;;;;6.60;6.03;;;24.40;76.00;;;;;;4988530;28;20292;-69
2022/07/24 05:38:47;;;;;;;6.45;5.95;;;24.40;76.10;;;;;;4988059;28;20194;-69
2022/07/24 05:41:13;;;;;;;6.00;5.60;;;24.40;76.00;;;;;;4988953;28;20186;-69
2022/07/24 05:43:39;;;;;;;6.50;6.00;;;24.40;76.10;;;;;;4988596;28;20182;-69
2022/07/24 05:46:05;;;;;;;6.18;5.45;;;24.40;76.10;;;;;;4988360;28;20303;-69
2022/07/24 05:48:31;;;;;;;6.90;6.32;;;24.40;76.10;;;;;;4987842;28;20570;-69
2022/07/24 05:50:57;;;;;;;6.75;6.15;;;24.40;76.20;;;;;;4988789;28;20300;-69
2022/07/24 05:53:23;;;;;;;6.75;6.25;;;24.40;76.20;;;;;;4991660;28;20567;-69
2022/07/24 05:55:51;;;;;;;6.97;6.38;;;24.40;76.20;;;;;;4992208;28;20252;-69
2022/07/24 05:58:17;;;;;;;6.28;5.78;;;24.40;76.20;;;;;;4991902;28;20247;-69
2022/07/24 06:00:43;;;;;;;5.95;5.45;;;24.40;76.20;;;;;;4992682;28;20564;-70
2022/07/24 06:03:10;;;;;;;5.97;5.47;;;24.30;76.20;;;;;;4992562;28;20198;-69
2022/07/24 06:05:36;;;;;;;6.40;5.90;;;24.40;76.30;;;;;;4992253;28;20213;-69
2022/07/24 06:08:02;;;;;;;6.30;5.80;;;24.30;76.30;;;;;;5006537;28;20186;-70
2022/07/24 06:10:28;;;;;;;6.80;6.30;;;24.40;76.30;;;;;;5011390;28;20208;-69
2022/07/24 06:12:54;;;;;;;6.97;6.38;;;24.40;76.40;;;;;;4995350;28;20250;-69
2022/07/24 06:15:21;;;;;;;7.18;6.63;;;24.40;76.40;;;;;;4995307;28;20177;-69
2022/07/24 06:17:46;;;;;;;7.13;6.43;;;24.40;76.60;;;;;;4994498;28;20675;-69
2022/07/24 06:20:13;;;;;;;6.65;6.05;;;24.40;76.60;;;;;;4995632;28;20220;-69
2022/07/24 06:22:45;;;;;;;6.85;6.25;;;24.40;76.70;;;;;;5028345;28;20565;-69
2022/07/24 06:25:12;;;;;;;6.35;5.85;;;24.40;76.70;;;;;;4991826;28;20241;-69
2022/07/24 06:27:48;;;;;;;6.68;6.07;;;24.40;76.70;;;;;;4975156;28;20185;-69
2022/07/24 06:30:23;;;;;;;6.78;6.28;;;24.30;76.70;;;;;;4975880;28;20217;-69
2022/07/24 06:32:51;;;;;;;6.25;5.75;;;24.40;76.90;;;;;;4988152;28;20569;-70
2022/07/24 06:35:17;;;;;;;6.80;6.20;;;24.40;76.90;;;;;;5007974;28;20186;-69
2022/07/24 06:37:43;;;;;;;6.18;5.68;;;24.40;76.80;;;;;;4975044;28;20190;-69
2022/07/24 06:40:10;;;;;;;6.43;5.93;;;24.40;76.80;;;;;;4975777;28;20190;-69
2022/07/24 06:42:36;;;;;;;7.00;6.43;;;24.40;76.80;;;;;;4985193;28;20185;-69
2022/07/24 06:45:03;;;;;;;6.80;6.00;;;24.40;76.70;;;;;;4979027;28;20189;-69
2022/07/24 06:47:29;;;;;;;6.80;6.30;;;24.40;76.70;;;;;;5006775;28;20213;-69
2022/07/24 06:49:56;;;;;;;6.60;6.10;;;24.40;76.80;;;;;;4975579;28;20276;-69
2022/07/24 06:52:22;;;;;;;6.47;5.85;;;24.40;77.00;;;;;;4975677;28;20193;-69
2022/07/24 06:54:49;;;;;;;6.10;5.68;;;24.40;77.00;;;;;;4975320;28;20185;-69
2022/07/24 06:57:16;;;;;;;6.65;6.15;;;24.40;77.00;;;;;;4997346;28;20304;-69
2022/07/24 06:59:42;;;;;;;6.22;5.72;;;24.40;76.90;;;;;;4994906;28;20199;-69
2022/07/24 07:02:08;;;;;;;6.07;5.68;;;24.40;76.80;;;;;;4994504;28;20189;-69
2022/07/24 07:04:34;;;;;;;6.65;6.15;;;24.40;76.90;;;;;;5027132;28;20320;-69
2022/07/24 07:06:59;;;;;;;6.07;5.68;;;24.40;76.90;;;;;;4990751;28;20218;-69
2022/07/24 07:09:25;;;;;;;6.70;6.10;;;24.40;77.10;;;;;;4991491;28;20641;-69
2022/07/24 07:11:51;;;;;;;6.05;5.60;;;24.40;77.00;;;;;;4991206;28;20209;-68
2022/07/24 07:14:17;;;;;;;6.40;5.88;;;24.40;77.10;;;;;;4991465;28;20569;-71
2022/07/24 07:16:43;;;;;;;6.15;5.65;;;24.40;77.10;;;;;;4991277;28;20229;-70
2022/07/24 07:19:09;;;;;;;6.50;6.00;;;24.40;77.10;;;;;;4990554;28;20213;-69
2022/07/24 07:21:36;;;;;;;6.95;6.45;;;24.40;77.10;;;;;;4991046;28;20190;-69
2022/07/24 07:24:02;;;;;;;6.63;6.13;;;24.40;77.00;;;;;;4991120;28;20186;-69
2022/07/24 07:26:28;;;;;;;6.78;6.28;;;24.40;77.10;;;;;;4990810;28;20223;-69
2022/07/24 07:28:54;;;;;;;6.22;5.70;;;24.40;77.00;;;;;;4990360;28;20197;-69
2022/07/24 07:31:20;;;;;;;6.93;6.35;;;24.40;76.90;;;;;;4990615;28;20209;-68
2022/07/24 07:33:45;;;;;;;6.88;6.30;;;24.40;76.90;;;;;;4990500;28;20194;-68
2022/07/24 07:36:11;;;;;;;6.40;6.00;;;24.40;77.80;;;;;;4990590;28;20256;-68
2022/07/24 07:38:38;;;;;;;6.63;6.10;;;24.40;76.90;;;;;;4990382;28;20220;-70
2022/07/24 07:41:05;;;;;;;6.25;5.75;;;24.40;76.70;;;;;;4990322;28;20544;-69
2022/07/24 07:43:31;;;;;;;6.28;5.78;;;24.40;76.70;;;;;;4990553;28;20190;-70
2022/07/24 07:45:57;;;;;;;6.55;5.88;;;24.40;77.50;;;;;;4990196;28;20776;-69
2022/07/24 07:48:23;;;;;;;6.22;5.72;;;24.40;76.70;;;;;;4990295;28;20288;-70
2022/07/24 07:50:49;;;;;;;6.55;6.05;;;24.40;76.70;;;;;;4990623;28;20217;-70
2022/07/24 07:53:15;;;;;;;6.72;6.13;;;24.40;76.80;;;;;;4974217;28;20255;-69
2022/07/24 07:55:40;;;;;;;6.60;6.10;;;24.40;76.70;;;;;;4990042;28;20213;-73
2022/07/24 07:58:06;;;;;;;6.40;5.90;;;24.40;76.60;;;;;;4990029;28;20186;-68
2022/07/24 08:00:33;;;;;;;5.93;5.53;;;24.50;76.80;;;;;;4990171;28;20212;-69
2022/07/24 08:02:59;;;;;;;6.85;6.25;;;24.40;76.60;;;;;;4990153;28;20393;-68
2022/07/24 08:05:25;;;;;;;7.28;6.70;;;24.50;76.70;;;;;;4990022;28;20218;-69
2022/07/24 08:07:51;;;;;;;7.10;6.60;;;24.50;76.90;;;;;;4989507;28;20230;-69
2022/07/24 08:10:16;;;;;;;7.18;6.68;;;24.50;76.70;;;;;;4989868;28;20646;-69
2022/07/24 08:12:42;;;;;;;6.72;6.13;;;24.50;76.70;;;;;;4989912;28;20182;-69
2022/07/24 08:15:10;;;;;;;6.95;6.35;;;24.50;76.80;;;;;;4989066;28;20190;-68
2022/07/24 08:17:36;;;;;;;7.30;6.63;;;24.50;76.70;;;;;;4989231;28;20597;-69
2022/07/24 08:20:03;;;;;;;6.65;6.15;;;24.50;76.70;;;;;;4989865;28;20190;-67
2022/07/24 08:22:28;;;;;;;6.93;6.43;;;24.50;76.80;;;;;;4989981;28;20185;-69
2022/07/24 08:24:54;;;;;;;6.88;6.32;;;24.50;76.70;;;;;;4989708;28;20197;-68
2022/07/24 08:27:20;;;;;;;6.70;6.20;;;24.50;76.60;;;;;;4988884;28;20217;-68
2022/07/24 08:29:46;;;;;;;6.53;6.10;;;24.50;76.40;;;;;;4989639;28;20192;-71
2022/07/24 08:32:11;;;;;;;6.57;6.07;;;24.50;76.80;;;;;;4989580;28;20222;-70
2022/07/24 08:34:37;;;;;;;7.28;6.65;;;24.50;76.70;;;;;;4997515;28;20678;-71
2022/07/24 08:37:03;;;;;;;7.18;6.68;;;24.50;76.70;;;;;;4975682;28;20204;-71
2022/07/24 08:39:29;;;;;;;7.20;6.60;;;24.50;76.70;;;;;;4992343;28;20188;-70
2022/07/24 08:41:55;;;;;;;7.20;6.70;;;24.50;76.60;;;;;;4992995;28;20184;-71
2022/07/24 08:44:20;;;;;;;7.07;6.57;;;24.50;76.50;;;;;;5008978;28;20235;-70
2022/07/24 08:46:47;;;;;;;6.93;6.35;;;24.50;76.60;;;;;;5008679;28;20217;-71
2022/07/24 08:49:14;;;;;;;7.13;6.53;;;24.50;76.50;;;;;;4992033;28;20216;-71
2022/07/24 08:51:44;;;;;;;7.53;6.93;;;24.50;76.60;;;;;;5008782;28;20363;-70
2022/07/24 08:54:10;;;;;;;7.20;6.70;;;24.50;76.70;;;;;;5009027;28;20189;-70
2022/07/24 08:56:40;;;;;;;6.97;6.40;;;24.50;76.70;;;;;;4992313;28;20209;-70
2022/07/24 08:59:19;;;;;;;6.80;6.30;;;24.50;76.50;;;;;;5008457;28;20180;-71
2022/07/24 09:01:48;;;;;;;7.35;6.72;;;24.50;76.50;;;;;;5008779;28;20173;-70
2022/07/24 09:04:37;;;;;;;6.97;6.40;;;24.50;76.60;;;;;;4992224;28;20185;-71
2022/07/24 09:07:17;;;;;;;6.97;6.38;;;24.60;76.70;;;;;;5008758;28;20212;-71
2022/07/24 09:09:57;;;;;;;7.43;6.82;;;24.50;76.70;;;;;;4992306;28;20189;-70
2022/07/24 09:12:23;;;;;;;7.32;6.75;;;24.50;76.70;;;;;;5008819;28;20180;-71
2022/07/24 09:14:49;;;;;;;7.05;6.45;;;24.50;76.60;;;;;;5008536;28;20185;-71
2022/07/24 09:17:21;;;;;;;7.15;6.65;;;24.50;76.70;;;;;;4991479;28;20204;-70
2022/07/24 09:19:57;;;;;;;7.20;6.63;;;24.60;76.90;;;;;;5008419;28;20239;-71
2022/07/24 09:22:37;;;;;;;7.65;6.95;;;24.60;76.90;;;;;;5007996;28;20181;-71
2022/07/24 09:25:19;;;;;;;7.90;7.20;;;24.60;76.80;;;;;;5007985;28;20172;-71
2022/07/24 09:27:51;;;;;;;7.50;6.82;;;24.60;76.70;;;;;;5004010;28;20200;-71
2022/07/24 09:30:32;;;;;;;6.65;6.10;;;24.60;76.70;;;;;;4972341;28;20207;-71
2022/07/24 09:33:02;;;;;;;7.25;6.63;;;24.60;76.80;;;;;;5003105;28;20199;-71
2022/07/24 09:35:38;;;;;;;7.85;7.25;;;24.60;76.80;;;;;;4991298;28;20220;-68
2022/07/24 09:38:24;;;;;;;7.60;6.95;;;24.60;76.90;;;;;;5014883;28;20184;-71
2022/07/24 09:40:54;;;;;;;7.47;6.80;;;24.60;76.90;;;;;;5017204;28;20192;-70
2022/07/24 09:43:28;;;;;;;7.03;6.43;;;24.60;76.90;;;;;;5021325;28;20190;-71
2022/07/24 09:46:06;;;;;;;7.25;6.65;;;24.60;77.00;;;;;;5004867;28;20211;-70
2022/07/24 09:48:54;;;;;;;7.32;6.70;;;24.60;77.10;;;;;;4974745;28;20248;-70
2022/07/24 09:51:20;;;;;;;7.57;6.88;;;24.60;76.90;;;;;;5024195;28;20223;-70
2022/07/24 09:53:55;;;;;;;8.00;7.30;;;24.60;76.80;;;;;;5024015;28;20216;-71
2022/07/24 09:56:21;;;;;;;7.93;7.32;;;24.60;77.00;;;;;;5020786;28;20269;-70
2022/07/24 09:58:54;;;;;;;7.45;6.85;;;24.60;77.00;;;;;;4990956;28;20189;-71
2022/07/24 10:01:26;;;;;;;7.57;6.88;;;24.60;77.00;;;;;;5024437;28;20289;-70
2022/07/24 10:03:55;;;;;;;8.05;7.25;;;24.60;76.90;;;;;;5024264;28;20204;-71
2022/07/24 10:06:26;;;;;;;8.05;7.28;;;24.60;77.00;;;;;;4991147;28;20344;-70
2022/07/24 10:08:54;;;;;;;7.18;6.57;;;24.60;76.80;;;;;;5015074;28;20185;-70
2022/07/24 10:11:21;;;;;;;7.63;6.93;;;24.60;76.70;;;;;;4990974;28;20720;-71
2022/07/24 10:13:48;;;;;;;7.50;6.90;;;24.60;76.50;;;;;;4991430;28;20189;-71
2022/07/24 10:16:26;;;;;;;7.30;6.68;;;24.60;76.50;;;;;;4991235;28;20205;-70
2022/07/24 10:19:03;;;;;;;7.82;7.18;;;24.60;76.90;;;;;;5007130;28;20550;-71
2022/07/24 10:21:37;;;;;;;7.82;7.13;;;24.70;76.50;;;;;;5007750;28;20187;-71
2022/07/24 10:24:12;;;;;;;8.02;7.43;;;24.70;76.30;;;;;;5007681;28;20196;-71
2022/07/24 10:26:50;;;;;;;7.55;6.95;;;24.70;76.10;;;;;;4990824;28;20215;-71
2022/07/24 10:29:23;;;;;;;7.63;6.90;;;24.70;76.40;;;;;;4987135;28;20184;-71
2022/07/24 10:31:55;;;;;;;7.60;6.90;;;24.70;76.40;;;;;;4971377;28;20233;-71
2022/07/24 10:34:38;;;;;;;7.80;7.10;;;24.70;76.70;;;;;;4997714;28;20192;-72
2022/07/24 10:37:15;;;;;;;7.60;6.97;;;24.70;76.50;;;;;;5023586;28;20212;-71
2022/07/24 10:40:11;;;;;;;7.82;7.22;;;24.70;76.40;;;;;;4977830;28;20189;-71
2022/07/24 10:43:05;;;;;;;7.15;6.55;;;24.70;77.00;;;;;;4978596;28;20188;-71
2022/07/24 10:45:32;;;;;;;7.50;6.90;;;24.70;76.60;;;;;;5027448;28;20221;-71
2022/07/24 10:48:18;;;;;;;7.50;6.90;;;24.70;76.60;;;;;;5026666;28;20240;-71
2022/07/24 10:51:17;;;;;;;7.35;6.75;;;24.70;76.80;;;;;;4991081;28;20752;-71
2022/07/24 10:53:53;;;;;;;7.90;7.07;;;24.70;77.00;;;;;;4975145;28;20185;-71
2022/07/24 10:56:38;;;;;;;7.57;6.88;;;24.70;76.80;;;;;;4992032;28;20355;-71
2022/07/24 10:59:14;;;;;;;7.60;7.00;;;24.70;76.80;;;;;;5010304;28;20166;-71
2022/07/24 11:01:47;;;;;;;7.93;7.25;;;24.70;76.40;;;;;;5010935;28;20188;-70
2022/07/24 11:04:18;;;;;;;7.40;6.78;;;24.70;76.60;;;;;;5011198;28;20180;-71
2022/07/24 11:06:48;;;;;;;8.23;7.53;;;24.70;76.40;;;;;;5010939;28;20209;-71
2022/07/24 11:09:18;;;;;;;7.25;6.72;;;24.70;76.20;;;;;;4993308;28;20278;-71
2022/07/24 11:11:53;;;;;;;7.63;6.95;;;24.70;76.20;;;;;;4994149;28;20680;-72
2022/07/24 11:14:45;;;;;;;7.63;7.03;;;24.70;76.00;;;;;;4993244;28;20592;-71
2022/07/24 11:17:46;;;;;;;7.50;6.90;;;24.70;76.00;;;;;;5001625;28;20209;-71
2022/07/24 11:20:21;;;;;;;7.75;6.97;;;24.70;76.50;;;;;;4967333;28;20212;-72
2022/07/24 11:22:49;;;;;;;7.88;7.18;;;24.70;75.90;;;;;;4985751;28;20220;-72
2022/07/24 11:25:34;;;;;;;7.45;6.78;;;24.70;75.60;;;;;;4987395;28;20586;-71
2022/07/24 11:28:21;;;;;;;7.40;6.80;;;24.70;75.40;;;;;;5003850;28;20235;-72
2022/07/24 11:30:46;;;;;;;7.63;7.03;;;24.70;75.70;;;;;;4991489;28;20240;-71
2022/07/24 11:33:21;;;;;;;7.85;7.25;;;24.70;76.00;;;;;;5007856;28;20591;-71
2022/07/24 11:35:46;;;;;;;7.65;7.00;;;24.70;75.60;;;;;;4981056;28;20232;-71
2022/07/24 11:38:14;;;;;;;7.03;6.43;;;24.70;76.50;;;;;;4971064;28;20225;-71
2022/07/24 11:40:40;;;;;;;7.55;6.90;;;24.70;76.10;;;;;;4971617;28;20661;-71
2022/07/24 11:43:09;;;;;;;7.45;6.82;;;24.70;75.90;;;;;;4971562;28;20240;-71
2022/07/24 11:45:35;;;;;;;7.43;6.82;;;24.80;75.90;;;;;;4979771;28;20209;-71
2022/07/24 11:48:01;;;;;;;7.90;7.18;;;24.80;75.80;;;;;;5002565;28;20196;-72
2022/07/24 11:50:27;;;;;;;7.30;6.60;;;24.80;76.00;;;;;;4987307;28;20220;-71
2022/07/24 11:52:54;;;;;;;7.38;6.68;;;24.80;76.10;;;;;;4978562;28;20181;-72
2022/07/24 11:55:24;;;;;;;7.55;6.72;;;24.80;76.00;;;;;;4998563;28;20280;-71
2022/07/24 11:57:54;;;;;;;7.68;6.97;;;24.80;75.90;;;;;;5010537;28;20247;-70
2022/07/24 12:00:28;;;;;;;7.50;6.90;;;24.80;75.60;;;;;;5006945;28;20184;-71
2022/07/24 12:03:01;;;;;;;7.60;6.97;;;24.80;75.70;;;;;;5023338;28;20747;-71
2022/07/24 12:05:37;;;;;;;7.60;7.00;;;24.80;75.80;;;;;;5017983;28;20208;-71
2022/07/24 12:08:26;;;;;;;7.95;7.00;;;24.80;76.10;;;;;;5005510;28;20189;-71
2022/07/24 12:11:01;;;;;;;7.53;6.78;;;24.80;75.70;;;;;;4977549;28;20304;-71
2022/07/24 12:13:32;;;;;;;8.52;7.72;;;24.80;75.80;;;;;;5019606;28;20181;-72
2022/07/24 12:15:58;;;;;;;7.53;6.90;;;24.80;75.90;;;;;;4995465;28;20212;-71
2022/07/24 12:18:26;;;;;;;7.57;6.78;;;24.80;75.70;;;;;;5010378;28;20201;-71
2022/07/24 12:20:58;;;;;;;7.10;6.47;;;24.80;76.20;;;;;;4984041;28;20193;-69
2022/07/24 12:23:24;;;;;;;7.72;7.07;;;24.80;75.30;;;;;;5008809;28;20280;-71
2022/07/24 12:25:50;;;;;;;7.20;6.60;;;24.80;75.60;;;;;;5008344;28;20300;-70
2022/07/24 12:28:18;;;;;;;8.07;7.32;;;24.80;75.40;;;;;;5008377;28;20279;-71
2022/07/24 12:30:51;;;;;;;7.55;6.93;;;24.80;75.60;;;;;;4991474;28;20217;-71
2022/07/24 12:33:26;;;;;;;7.85;7.07;;;24.80;75.50;;;;;;4973204;28;20276;-71
2022/07/24 12:36:08;;;;;;;7.97;7.20;;;24.80;75.80;;;;;;4972974;28;20299;-71
2022/07/24 12:38:40;;;;;;;7.80;7.10;;;24.80;75.90;;;;;;4972502;28;20178;-71
2022/07/24 12:41:11;;;;;;;8.02;7.20;;;24.80;75.70;;;;;;4989122;28;20194;-71
2022/07/24 12:43:52;;;;;;;7.35;6.68;;;24.80;75.50;;;;;;4989309;28;20193;-71
2022/07/24 12:46:37;;;;;;;7.78;7.13;;;24.80;76.40;;;;;;4988900;28;20216;-71
2022/07/24 12:49:10;;;;;;;7.43;6.82;;;24.80;75.50;;;;;;5013446;28;20185;-70
2022/07/24 12:51:57;;;;;;;7.93;7.22;;;24.80;75.40;;;;;;4992241;28;20606;-71
2022/07/24 12:54:32;;;;;;;7.75;7.07;;;24.80;75.20;;;;;;5003246;28;20188;-71
2022/07/24 12:57:09;;;;;;;8.10;7.35;;;24.80;75.70;;;;;;5005723;28;20223;-72